FLIGHT INFORMATION
Global Supply Systems

GSS7510

Diverted

CYYZ
 CYYZ
[Original Destination: CYYZ ]
DATE: 2018-12-16
GATE:  -
GATE DEPARTURE: 19:17
TAKEOFF: 19:35
DATE: 2018-12-16
GATE:  -
LANDING: 20:32
GATE ARRIVAL: 20:36
FLIGHT DATA
Crew: TOM LANDRY
Speed: 494 kts Altitude: 37000 ft
Stage Length: 318 nm
Route: BMPAH GIBBE XUCCO VILCU MESTE CFB LVZ
Block Time: 1.3 Flight Time: 1
Fuel Used: 26218 LB
TRACK DATA
50000 FT1000 KTAltitudeSpeed
AIRCRAFT INFORMATION
Aircraft Type: B748F
Registration: G-GSSD
SELCAL:  MSN/LN: 37561 / 1442
Operator: GLOBAL SUPPLY SYSTEMS
Flights: 13 Block Time: 27.7 Flight Time: 23.4
Fuel Used: 522404 LB
  • DEPARTURE INFORMATION
    Date: 2018-12-16
    Airport: CYYZ
    Gate:  -
    Gate Departure: 19:17
    Takeoff: 19:35
    ARRIVAL INFORMATION
    Date: 2018-12-16
    Airport: CYYZ [Original Destination: CYYZ ]
    Gate:  -
    Landing: 20:32
    Gate Arrival: 20:36
  • FLIGHT DATA
    Crew: TOM LANDRY
    Speed: 494 kts Altitude: 37000 ft
    Stage Length: 172 nm
    Route: BMPAH GIBBE XUCCO VILCU MESTE CFB LVZ
    Block Time: 1.3 Flight Time: 1
    Fuel Used: 26218 LB
  • AIRCRAFT INFORMATION
    Aircraft Type: B748F
    Registration: G-GSSD
    SELCAL:  MSN/LN: 37561 / 1442
    Operator: Global Supply Systems
    Flights: 13 Block Time: 27.7 Flight Time: 23.4
    Fuel Used: 522404 LB

DATALINK LOG | Newest first | Current as of: 2020-07-13 14:20:52
LABEL ID SEQUENCE CONTENT Dn/Up
QD364220:36 30.5▼ Dn
QC323320:32▼ Dn
2U0213CYYZ 162241Z 17004KT 15SM SCT009 SCT120 BKN220 02/M01 A2995 RMK SF3AC1CI1 SLP152▲ Up
2S0213CYYZ▼ Dn
QB355219:35▼ Dn
QA172119:17 57▼ Dn
2U0205KJFK 162051Z 02011KT 3SM -RA BR BKN009 OVC013 05/05 A2982 RMK AO2 SLP097 P0004 60048 T00500050 56016▲ Up
2S0205KJFK▼ Dn
QD450418:45 31.4▼ Dn
QC341918:34▼ Dn
2U5825KJFK 162032Z 02011G22KT 2SM -RA BR BKN009 OVC013 05/05 A2982 RMK AO2 TWR VIS 2 1/2 P0003 T00500050▲ Up
2S5825KJFK▼ Dn
2U4224KJFK 162032Z 02011G22KT 2SM -RA BR BKN009 OVC013 05/05 A2982 RMK AO2 TWR VIS 2 1/2 P0003 T00500050▲ Up
5U4230KJFK 170041Z 01015G24KT 2SM -RA BR OVC010 05/05 A2982▲ Up
5S4230KJFK▼ Dn
2S4224KJFK▼ Dn
QB290917:29▼ Dn
QA192417:19 61.3▼ Dn
2U0543CYYZ 161900Z VRB02KT 12SM FEW016 SCT140 BKN220 04/M00 A2996 RMK SC2AC2CI2 SLP154▲ Up
2S0543CYYZ▼ Dn


AIRCRAFT HISTORY
FLIGHT DATE FLIGHT NUMBER ORIGIN DESTINATION ROUTE BLOCK TIME FLIGHT TIME FUEL USED (LB) PILOT
2019-08-17GSS211EGCC EGSS EGCC LISTO PEDIG ROGBI CLIPY BOMBO BKY BUSTA ASKEY RW220.80.613303-HIDDEN-
2019-03-19GSS319EGPK EGCC EGPK OSMEG RIPNO DCS LAKEY EGCC10.716197-HIDDEN-
2019-02-10GSS232EGLL EGPK EGLL D270D D282G BURNB D357D UMLAT WOBUN WELIN AKUPA TIMPO ELVOS TNT POL NELSA RIBEL EGPK1.30.920290-HIDDEN-
2019-02-09GSS208KATL EGLL KATL SPA NYBLK MASHI KIDDO OMENS BEARI PXT GARED CLASY RIDGY CANNY PALMM ENO BESSI EDJER DAVYS BRAND RBV LLUND BAYYS PUT EBONY RIKAL 5350N 5540N 5630N 5520N RESNO NETKI LIFFY BAKOX BAVUD DONAX MALUD VOLFI NUGRA EGLL7.47151278Aaron Buchanan
2019-02-02GSS748TXKF KATL TXKF JIMAC ALOBI LEXIM EMQUE OLDEY SPIKY PITRW CHS HOTHH KATL3.22.866269-HIDDEN-
2019-02-01GSS201KJFK TXKF KJFK TXKF21.637401-HIDDEN-
2019-01-10GSS170CYYZ KJFK BMPAH AEVON EXTOL MEMMS KODEY ARKKK RODYY YODAA IGN1.31.129143-HIDDEN-
2018-12-16GSS7510CYYZ CYYZ BMPAH GIBBE XUCCO VILCU MESTE CFB LVZ1.3126218Tom Landry
2018-12-08GSS286KORD CYYZ EBAKE WISMO POSTS PADDE SVM QWERI1.4127851-HIDDEN-
2018-12-03GSS287CYVR KORD HUH GETNG CORDU PETIY CHOTE LEWIT MLS TOUGH JELRO KEKPE UFFDA HSTIN ZZIPR3.83.369626-HIDDEN-
2018-11-20GSS9890CYYC CYVR BOTAG BOOTH VITEV STAVE GOPAD MOGUS OBTOT1.4125574Jason Brown
2018-11-19GSS9899CYVR CYYC ADSIX CILLI NORET PIBSO AMITO SEDEL IGVEP XUGAV URVUG VESGA MESKA DEPTU1.1127269Jason Brown
2018-08-19GSS1KPAE CYVR 10.411986-HIDDEN-